KDPGKDPG

Guest
Details From KDPG - Michael Aaf (dougway Proving Grounds)
To KDPG - Michael Aaf (dougway Proving Grounds)
Flight Number -
Tags Standard
Created
Modified
Stats Distance 46 nm / 85 km
Max Altitude 0 ft / 0 m
Waypoints 8
Social Downloads 1
Likes 0
Share VATSIM

Download

Looking for another format? Having issues loading an existing format? Contact us
Advertisement - Login to hide

Notes

None

Route

+40.180_-113.223 +40.181_-113.357 +40.137_-113.357 +40.136_-113.127 +40.091_-113.127 +40.091_-113.359 +40.046_-113.360 +40.047_-113.127

ID Type Via Altitude Latitude Longitude Leg Dist Tot Dist Heading (true) Name
O +40.180_-113.223 LATLON - 0 ft / 0 m 40.18032˚ -113.22326˚ - 0 nm - -
+40.181_-113.357 LATLON - 0 ft / 0 m 40.18190˚ -113.35750˚ 6 nm 6 nm 271° / 271° -
+40.137_-113.357 LATLON - 0 ft / 0 m 40.13729˚ -113.35785˚ 2 nm 8 nm 180° / 180° -
+40.136_-113.127 LATLON - 0 ft / 0 m 40.13624˚ -113.12713˚ 10 nm 19 nm 90° / 90° -
+40.091_-113.127 LATLON - 0 ft / 0 m 40.09108˚ -113.12782˚ 2 nm 22 nm 181° / 181° -
+40.091_-113.359 LATLON - 0 ft / 0 m 40.09108˚ -113.35922˚ 10 nm 32 nm 270° / 270° -
+40.046_-113.360 LATLON - 0 ft / 0 m 40.04642˚ -113.36025˚ 2 nm 35 nm 181° / 181° -
O +40.047_-113.127 LATLON - 0 ft / 0 m 40.04773˚ -113.12782˚ 10 nm 46 nm 90° / 90° -

Altitude Profile

Advertisement - Login to hide

KDPG

Details ICAO KDPG
Name Michael AAF (Dougway Proving Grounds)
Region United States
Timezone America/Denver (UTC-7.0)
Stats Elevation 4,348 ft / 1,325 m (AMSL)
Location 40.199411° -112.937744°
Runways 1
Magnetic Variation 11.696° E

METAR

KDPG 111515Z 12001KT 2SM BR FEW000 FEW002 FEW250 M15/M17 A3063 RMK VIS NE-E 4 VIS W-NW 1 1/2 BR FEW000 SLP430 T11551169

Decode

TAF

Not found

Departure Runways

ID Width Length Bearing (true) Bearing (mag) Surface Threshold Offset Overrun Length
12L 200 ft / 61 m 13,126 ft / 4,001 m 135.07° 123.37° Asphalt 0 ft / 0 m 650 ft / 198 m
30R 200 ft / 61 m 13,126 ft / 4,001 m 315.10° 303.40° Asphalt 0 ft / 0 m 650 ft / 198 m

KDPG

Details ICAO KDPG
Name Michael AAF (Dougway Proving Grounds)
Region United States
Timezone America/Denver (UTC-7.0)
Stats Elevation 4,348 ft / 1,325 m (AMSL)
Location 40.199411° -112.937744°
Runways 1
Magnetic Variation 11.696° E

METAR

KDPG 111515Z 12001KT 2SM BR FEW000 FEW002 FEW250 M15/M17 A3063 RMK VIS NE-E 4 VIS W-NW 1 1/2 BR FEW000 SLP430 T11551169

Decode

TAF

Not found

Destination Runways

ID Width Length Bearing (true) Bearing (mag) Surface Threshold Offset Overrun Length
12L 200 ft / 61 m 13,126 ft / 4,001 m 135.07° 123.37° Asphalt 0 ft / 0 m 650 ft / 198 m
30R 200 ft / 61 m 13,126 ft / 4,001 m 315.10° 303.40° Asphalt 0 ft / 0 m 650 ft / 198 m